Geo Explorer — V4YI — position and weather

sailwx.info

Track history (hours):
 
Tides and Currents Weather Stations Pressure Air Temp Water Temp Dewpoint Dewpoint Depression Visibility Wind Speed Wind Dir Waves Ship Positions

Geo Explorer

Last reported at 2018-Feb-20 07:11 UTC. Time now 2018-Feb-25 17:44 UTC.
Position S 33°01' W 071°44'.

Length 75 m; draft 7.5 m.

Type: Other ship. MMSI: 341632000.

Date/timePositionNaut miles runAvg speedWind from/ knotsBaromVisibWave heightAir tempDewpointWater temp
2018-Feb-20 07:11S 33°01' W 071°44'3 7.6
2018-Feb-20 06:48S 32°60' W 071°41'2 7.4
2018-Feb-20 06:31S 32°59' W 071°39'4 0.5
2018-Feb-19 22:33S 33°02' W 071°36'0 3.0
2018-Feb-19 22:29S 33°02' W 071°37'1 0.0
2018-Feb-18 11:05S 33°02' W 071°38'0 1.5
2018-Feb-18 10:59S 33°02' W 071°37'1 0.0
2018-Feb-17 11:22S 33°02' W 071°36'0 0.0
2018-Feb-16 15:44S 33°02' W 071°36'0 0.0
2018-Feb-16 12:37S 33°02' W 071°36'0 0.0
2018-Feb-15 11:25S 33°02' W 071°36'0 1.0
2018-Feb-15 10:57S 33°02' W 071°37'2 4.3
2018-Feb-15 10:30S 32°60' W 071°38'2 3.2
2018-Feb-15 09:58S 32°58' W 071°38'2 3.4
2018-Feb-15 09:30S 32°57' W 071°40'2 3.9
2018-Feb-15 09:00S 32°56' W 071°41'3 5.5
2018-Feb-15 08:30S 32°54' W 071°43'3 5.5
2018-Feb-15 08:00S 32°52' W 071°46'3 5.3
2018-Feb-15 07:30S 32°50' W 071°48'2 4.3
2018-Feb-15 07:00S 32°48' W 071°48'2 0.4
2018-Feb-15 02:11S 32°46' W 071°47'1 2.9
2018-Feb-15 01:44S 32°47' W 071°47'1 2.8
2018-Feb-15 01:30S 32°48' W 071°47'1 2.9
2018-Feb-15 01:00S 32°50' W 071°47'1 2.8
2018-Feb-15 00:29S 32°51' W 071°47'1 2.7
2018-Feb-15 00:01S 32°52' W 071°47'1 1.9
2018-Feb-14 23:19S 32°54' W 071°46'0 0.8
2018-Feb-14 22:57S 32°54' W 071°46'0 0.1
2018-Feb-14 22:30S 32°54' W 071°46'3 4.7
2018-Feb-14 21:57S 32°51' W 071°47'3 6.9
2018-Feb-14 21:28S 32°48' W 071°48'3 6.0
2018-Feb-14 21:00S 32°45' W 071°49'  
Track history (hours):
 
Tides and Currents Weather Stations Pressure Air Temp Water Temp Dewpoint Dewpoint Depression Visibility Wind Speed Wind Dir Waves Ship Positions

Geo Explorer

Last reported at 2018-Feb-20 07:11 UTC. Time now 2018-Feb-25 17:44 UTC.
Position S 33°01' W 071°44'.

Length 75 m; draft 7.5 m.

Type: Other ship. MMSI: 341632000.

Date/timePositionNaut miles runAvg speedWind from/ knotsBaromVisibWave heightAir tempDewpointWater temp
2018-Feb-20 07:11S 33°01' W 071°44'3 7.6
2018-Feb-20 06:48S 32°60' W 071°41'2 7.4
2018-Feb-20 06:31S 32°59' W 071°39'4 0.5
2018-Feb-19 22:33S 33°02' W 071°36'0 3.0
2018-Feb-19 22:29S 33°02' W 071°37'1 0.0
2018-Feb-18 11:05S 33°02' W 071°38'0 1.5
2018-Feb-18 10:59S 33°02' W 071°37'1 0.0
2018-Feb-17 11:22S 33°02' W 071°36'0 0.0
2018-Feb-16 15:44S 33°02' W 071°36'0 0.0
2018-Feb-16 12:37S 33°02' W 071°36'0 0.0
2018-Feb-15 11:25S 33°02' W 071°36'0 1.0
2018-Feb-15 10:57S 33°02' W 071°37'2 4.3
2018-Feb-15 10:30S 32°60' W 071°38'2 3.2
2018-Feb-15 09:58S 32°58' W 071°38'2 3.4
2018-Feb-15 09:30S 32°57' W 071°40'2 3.9
2018-Feb-15 09:00S 32°56' W 071°41'3 5.5
2018-Feb-15 08:30S 32°54' W 071°43'3 5.5
2018-Feb-15 08:00S 32°52' W 071°46'3 5.3
2018-Feb-15 07:30S 32°50' W 071°48'2 4.3
2018-Feb-15 07:00S 32°48' W 071°48'2 0.4
2018-Feb-15 02:11S 32°46' W 071°47'1 2.9
2018-Feb-15 01:44S 32°47' W 071°47'1 2.8
2018-Feb-15 01:30S 32°48' W 071°47'1 2.9
2018-Feb-15 01:00S 32°50' W 071°47'1 2.8
2018-Feb-15 00:29S 32°51' W 071°47'1 2.7
2018-Feb-15 00:01S 32°52' W 071°47'1 1.9
2018-Feb-14 23:19S 32°54' W 071°46'0 0.8
2018-Feb-14 22:57S 32°54' W 071°46'0 0.1
2018-Feb-14 22:30S 32°54' W 071°46'3 4.7
2018-Feb-14 21:57S 32°51' W 071°47'3 6.9
2018-Feb-14 21:28S 32°48' W 071°48'3 6.0
2018-Feb-14 21:00S 32°45' W 071°49'  

Dump ship's entire track history